createdAt,value
2019-01-14T00:00:42.583Z,99685.03
2019-01-14T00:03:09.813Z,99685.03
2019-01-14T00:05:37.033Z,99694.01
2019-01-14T00:08:04.390Z,99706.94
2019-01-14T00:10:31.604Z,99703.53
2019-01-14T00:12:58.956Z,99705.89
2019-01-14T00:15:26.200Z,99717.95
2019-01-14T00:17:53.429Z,99715.36
2019-01-14T00:20:20.741Z,99733.86
2019-01-14T00:22:48.607Z,99741.78
2019-01-14T00:25:29.365Z,99742.17
2019-01-14T00:27:56.625Z,99752.03
2019-01-14T00:30:23.901Z,99759.00
2019-01-14T00:32:51.069Z,99766.92
2019-01-14T00:35:18.312Z,99766.92
2019-01-14T00:37:45.498Z,99779.22
2019-01-14T00:40:14.500Z,99784.49
2019-01-14T00:42:42.101Z,99790.24
2019-01-14T00:45:09.362Z,99786.41
2019-01-14T00:47:36.866Z,99801.30
2019-01-14T00:50:04.806Z,99806.84
2019-01-14T00:52:32.074Z,99806.84
2019-01-14T00:54:59.304Z,99830.36
2019-01-14T00:57:26.508Z,99850.45
2019-01-14T00:59:53.853Z,99850.45
2019-01-14T01:02:21.060Z,99855.33
2019-01-14T01:04:48.314Z,99870.92
2019-01-14T01:07:15.573Z,99876.98
2019-01-14T01:09:42.754Z,99876.98
2019-01-14T01:12:10.295Z,99879.20
2019-01-14T01:14:37.496Z,99882.77
2019-01-14T01:17:04.695Z,99895.00
2019-01-14T01:19:31.938Z,99894.14
2019-01-14T01:21:59.123Z,99896.39
2019-01-14T01:24:26.331Z,99906.13
2019-01-14T01:26:53.542Z,99921.58
2019-01-14T01:29:20.798Z,99921.58
2019-01-14T01:31:48.007Z,99924.98
2019-01-14T01:34:15.214Z,99925.14
2019-01-14T01:36:42.445Z,99925.14
2019-01-14T01:39:09.633Z,99930.38
2019-01-14T01:41:36.872Z,99940.31
2019-01-14T01:44:04.084Z,99940.31
2019-01-14T01:46:31.338Z,99939.84
2019-01-14T01:48:58.542Z,99941.66
2019-01-14T01:51:25.830Z,99942.97
2019-01-14T01:53:53.039Z,99947.36
2019-01-14T01:56:20.242Z,99945.23
2019-01-14T01:58:47.477Z,99949.14
2019-01-14T02:01:14.718Z,99950.88
2019-01-14T02:03:41.925Z,99955.16
2019-01-14T02:06:09.151Z,99955.16
2019-01-14T02:08:36.398Z,99958.13
2019-01-14T02:11:03.723Z,99964.75
2019-01-14T02:13:30.945Z,99967.55
2019-01-14T02:15:58.123Z,99974.96
2019-01-14T02:18:25.356Z,99974.96
2019-01-14T02:20:52.608Z,99978.73
2019-01-14T02:23:19.814Z,99978.22
2019-01-14T02:25:47.141Z,99978.22
2019-01-14T02:28:14.320Z,99984.35
2019-01-14T02:30:41.474Z,99993.58
2019-01-14T02:33:08.731Z,99992.70
2019-01-14T02:35:35.921Z,100002.65
2019-01-14T02:38:03.122Z,100004.83
2019-01-14T02:40:30.334Z,100006.49
2019-01-14T02:42:57.543Z,99995.56
2019-01-14T02:45:24.795Z,99997.73
2019-01-14T02:47:52.023Z,99993.42
2019-01-14T02:50:19.235Z,99998.66
2019-01-14T02:52:46.436Z,100002.69
2019-01-14T02:55:13.677Z,100008.39
2019-01-14T02:57:40.893Z,100004.54
2019-01-14T03:00:11.638Z,100011.98
2019-01-14T03:02:38.823Z,100025.38
2019-01-14T03:05:06.112Z,100025.27
2019-01-14T03:07:33.274Z,100025.27
2019-01-14T03:10:00.519Z,100032.63
2019-01-14T03:12:27.705Z,100046.06
2019-01-14T03:14:55.018Z,100077.91
2019-01-14T03:17:22.235Z,100077.69
2019-01-14T03:19:49.409Z,100077.69
2019-01-14T03:22:16.634Z,100097.33
2019-01-14T03:24:43.853Z,100102.55
2019-01-14T03:27:11.013Z,100105.09
2019-01-14T03:29:38.284Z,100095.98
2019-01-14T03:32:05.474Z,100107.71
2019-01-14T03:34:32.674Z,100112.50
2019-01-14T03:37:05.440Z,100110.73
2019-01-14T03:39:29.107Z,100124.70
2019-01-14T03:41:56.318Z,100124.27
2019-01-14T03:44:23.545Z,100130.11
2019-01-14T03:46:50.745Z,100130.11
2019-01-14T03:49:17.968Z,100138.31
2019-01-14T03:51:45.152Z,100146.55
2019-01-14T03:54:12.351Z,100171.28
2019-01-14T03:56:39.564Z,100170.01
2019-01-14T03:59:06.811Z,100161.36
2019-01-14T04:01:34.046Z,100171.48
2019-01-14T04:04:01.258Z,100161.44
2019-01-14T04:06:28.501Z,100175.64
2019-01-14T04:08:55.705Z,100160.91
2019-01-14T04:11:22.943Z,100174.03
2019-01-14T04:13:50.154Z,100178.39
2019-01-14T04:16:17.377Z,100166.20
2019-01-14T04:18:44.681Z,100182.31
2019-01-14T04:21:11.887Z,100171.16
2019-01-14T04:23:39.131Z,100165.99
2019-01-14T04:26:06.370Z,100165.99
2019-01-14T04:28:33.549Z,100161.91
2019-01-14T04:31:00.735Z,100168.44
2019-01-14T04:33:27.982Z,100158.09
2019-01-14T04:35:55.228Z,100169.78
2019-01-14T04:38:22.445Z,100175.38
2019-01-14T04:40:49.621Z,100177.92
2019-01-14T04:43:16.837Z,100178.26
2019-01-14T04:45:44.020Z,100178.26
2019-01-14T04:48:11.243Z,100198.30
2019-01-14T04:50:38.455Z,100198.77
2019-01-14T04:53:05.713Z,100196.15
2019-01-14T04:55:32.931Z,100199.97
2019-01-14T04:58:00.134Z,100207.74
2019-01-14T05:00:27.357Z,100211.30
2019-01-14T05:02:54.757Z,100198.27
2019-01-14T05:05:22.101Z,100204.39
2019-01-14T05:07:49.302Z,100203.48
2019-01-14T05:10:16.913Z,100202.45
2019-01-14T05:12:44.193Z,100204.56
2019-01-14T05:15:11.431Z,100215.08
2019-01-14T05:17:38.646Z,100215.08
2019-01-14T05:20:07.161Z,100223.26
2019-01-14T05:22:34.392Z,100225.41
2019-01-14T05:25:01.613Z,100225.41
2019-01-14T05:27:28.835Z,100247.12
2019-01-14T05:29:56.099Z,100247.12
2019-01-14T05:32:23.299Z,100252.45
2019-01-14T05:34:50.526Z,100254.16
2019-01-14T05:37:17.758Z,100254.16
2019-01-14T05:39:44.926Z,100255.86
2019-01-14T05:42:12.134Z,100255.86
2019-01-14T05:44:39.377Z,100260.99
2019-01-14T05:47:06.581Z,100254.89
2019-01-14T05:49:33.866Z,100254.89
2019-01-14T05:52:02.544Z,100274.80
2019-01-14T05:54:29.838Z,100271.45
2019-01-14T05:56:57.693Z,100275.27
2019-01-14T05:59:24.989Z,100281.00
2019-01-14T06:01:52.309Z,100281.00
2019-01-14T06:04:19.531Z,100284.62
2019-01-14T06:06:46.764Z,100296.75
2019-01-14T06:09:14.034Z,100301.61
2019-01-14T06:11:41.380Z,100295.55
2019-01-14T06:14:08.636Z,100296.38
2019-01-14T06:16:35.842Z,100309.61
2019-01-14T06:19:03.028Z,100309.61
2019-01-14T06:21:30.282Z,100317.48
2019-01-14T06:23:57.453Z,100317.48
2019-01-14T06:26:25.850Z,100306.62
2019-01-14T06:28:53.170Z,100306.62
2019-01-14T06:31:20.461Z,100315.86
2019-01-14T06:33:47.780Z,100312.88
2019-01-14T06:36:15.016Z,100322.11
2019-01-14T06:38:42.236Z,100322.11
2019-01-14T06:41:09.438Z,100339.44
2019-01-14T06:43:36.795Z,100352.07
2019-01-14T06:46:03.993Z,100339.50
2019-01-14T06:48:31.277Z,100365.11
2019-01-14T06:50:58.478Z,100365.11
2019-01-14T06:53:25.709Z,100371.09
2019-01-14T06:55:52.913Z,100366.64
2019-01-14T06:58:20.116Z,100377.97
2019-01-14T07:00:47.455Z,100378.84
2019-01-14T07:03:14.674Z,100381.48
2019-01-14T07:05:41.877Z,100381.39
2019-01-14T07:08:09.154Z,100383.52
2019-01-14T07:10:36.302Z,100383.52
2019-01-14T07:13:03.597Z,100387.90
2019-01-14T07:15:31.104Z,100387.90
2019-01-14T07:17:58.499Z,100388.37
2019-01-14T07:20:25.875Z,100387.92
2019-01-14T07:22:53.132Z,100387.87
2019-01-14T07:25:20.381Z,100401.28
2019-01-14T07:27:47.605Z,100407.13
2019-01-14T07:30:16.663Z,100407.13
2019-01-14T07:32:44.003Z,100417.93
2019-01-14T07:35:11.368Z,100414.41
2019-01-14T07:37:38.557Z,100414.41
2019-01-14T07:40:07.333Z,100416.66
2019-01-14T07:42:34.533Z,100424.44
2019-01-14T07:45:01.852Z,100451.10
2019-01-14T07:47:29.062Z,100442.82
2019-01-14T07:56:28.605Z,100454.13
2019-01-14T07:58:56.461Z,100447.97
2019-01-14T08:01:23.683Z,100459.34
2019-01-14T08:03:50.918Z,100468.09
2019-01-14T08:06:18.095Z,100501.17
2019-01-14T08:08:45.311Z,100501.95
2019-01-14T08:11:12.565Z,100501.95
2019-01-14T08:16:41.172Z,100514.65
2019-01-14T08:19:08.385Z,100508.66
2019-01-14T08:21:35.622Z,100499.54
2019-01-14T08:24:02.813Z,100499.54
2019-01-14T08:26:29.993Z,100512.94
2019-01-14T08:28:57.297Z,100504.19
2019-01-14T08:31:24.449Z,100517.31
2019-01-14T08:33:51.605Z,100515.55
2019-01-14T08:36:18.932Z,100520.80
2019-01-14T08:38:46.106Z,100528.48
2019-01-14T08:41:14.111Z,100528.48
2019-01-14T08:43:41.692Z,100528.51
2019-01-14T08:46:09.303Z,100528.51
2019-01-14T08:48:36.502Z,100521.97
2019-01-14T08:51:05.465Z,100521.08
2019-01-14T08:53:34.169Z,100521.08
2019-01-14T08:56:01.507Z,100526.62
2019-01-14T08:58:28.674Z,100525.67
2019-01-14T09:00:55.838Z,100528.64
2019-01-14T09:03:23.060Z,100532.66
2019-01-14T09:05:50.194Z,100527.83
2019-01-14T09:08:17.402Z,100529.24
2019-01-14T09:10:44.727Z,100536.59
2019-01-14T09:13:11.933Z,100536.48
2019-01-14T09:15:39.151Z,100537.44
2019-01-14T09:18:06.352Z,100537.44
2019-01-14T09:20:33.536Z,100546.13
2019-01-14T09:23:00.731Z,100554.36
2019-01-14T09:25:28.075Z,100540.79
2019-01-14T09:27:55.232Z,100540.79
2019-01-14T09:30:24.086Z,100541.31
2019-01-14T09:32:51.294Z,100541.31
2019-01-14T09:35:18.469Z,100550.41
2019-01-14T09:37:45.806Z,100529.40
2019-01-14T09:40:14.984Z,100529.40
2019-01-14T09:42:42.189Z,100530.11
2019-01-14T09:45:09.444Z,100541.77
2019-01-14T09:47:36.613Z,100541.77
2019-01-14T09:50:04.506Z,100563.23
2019-01-14T09:52:31.730Z,100561.93
2019-01-14T09:54:58.929Z,100561.93
2019-01-14T09:57:26.212Z,100564.27
2019-01-14T09:59:53.360Z,100560.87
2019-01-14T10:02:20.550Z,100563.89
2019-01-14T10:04:47.757Z,100563.89
2019-01-14T10:07:14.944Z,100568.60
2019-01-14T10:09:42.265Z,100570.73
2019-01-14T10:12:09.460Z,100576.83
2019-01-14T10:14:36.763Z,100581.24
2019-01-14T10:17:03.977Z,100592.11
2019-01-14T10:19:31.192Z,100620.66
2019-01-14T10:21:58.445Z,100620.66
2019-01-14T10:24:25.637Z,100628.67
2019-01-14T10:26:52.839Z,100618.27
2019-01-14T10:29:20.094Z,100613.44
2019-01-14T10:31:47.365Z,100613.44
2019-01-14T10:34:14.543Z,100609.14
2019-01-14T10:36:41.868Z,100626.47
2019-01-14T10:39:09.034Z,100636.87
2019-01-14T10:41:36.214Z,100631.10
2019-01-14T10:44:03.534Z,100633.74
2019-01-14T10:46:30.739Z,100630.20
2019-01-14T10:48:57.939Z,100633.80
2019-01-14T10:51:25.180Z,100633.80
2019-01-14T10:53:52.391Z,100645.95
2019-01-14T10:56:19.605Z,100647.72
2019-01-14T10:58:47.011Z,100647.72
2019-01-14T11:01:14.171Z,100655.10
2019-01-14T11:03:41.355Z,100658.19
2019-01-14T11:06:08.547Z,100669.93
2019-01-14T11:08:35.896Z,100666.01
2019-01-14T11:11:03.087Z,100682.13
2019-01-14T11:13:33.811Z,100682.13
2019-01-14T11:16:01.143Z,100672.05
2019-01-14T11:18:28.375Z,100672.05
2019-01-14T11:20:55.585Z,100694.63
2019-01-14T11:23:22.966Z,100686.80
2019-01-14T11:25:50.255Z,100692.39
2019-01-14T11:28:17.539Z,100681.55
2019-01-14T11:30:44.795Z,100692.89
2019-01-14T11:33:11.968Z,100692.89
2019-01-14T11:35:39.275Z,100694.42
2019-01-14T11:38:08.433Z,100702.91
2019-01-14T11:40:37.928Z,100702.91
2019-01-14T11:43:05.167Z,100692.41
2019-01-14T11:45:32.367Z,100713.32
2019-01-14T11:47:59.627Z,100715.50
2019-01-14T11:50:26.856Z,100720.46
2019-01-14T11:52:54.153Z,100720.46
2019-01-14T11:55:21.479Z,100722.25
2019-01-14T11:57:48.913Z,100722.25
2019-01-14T12:00:23.879Z,100722.69
2019-01-14T12:02:51.070Z,100730.52
2019-01-14T12:05:18.356Z,100730.52
2019-01-14T12:07:46.561Z,100729.59
2019-01-14T12:10:13.941Z,100737.80
2019-01-14T12:12:41.219Z,100762.28
2019-01-14T12:15:16.908Z,100762.28
2019-01-14T12:17:44.120Z,100742.63
2019-01-14T12:20:12.010Z,100739.11
2019-01-14T12:22:39.205Z,100739.11
2019-01-14T12:25:06.623Z,100748.81
2019-01-14T12:27:33.839Z,100748.81
2019-01-14T12:30:01.010Z,100753.55
2019-01-14T12:32:28.217Z,100760.36
2019-01-14T12:34:55.611Z,100759.55
2019-01-14T12:37:22.775Z,100759.55
2019-01-14T12:39:49.964Z,100770.56
2019-01-14T12:42:17.260Z,100770.56
2019-01-14T12:44:44.446Z,100779.16
2019-01-14T12:47:11.618Z,100769.03
2019-01-14T12:49:38.822Z,100770.69
2019-01-14T12:52:06.176Z,100778.52
2019-01-14T12:54:33.359Z,100778.52
2019-01-14T12:57:00.587Z,100784.91
2019-01-14T12:59:27.759Z,100787.50
2019-01-14T13:01:55.000Z,100802.47
2019-01-14T13:04:22.167Z,100802.47
2019-01-14T13:06:49.428Z,100803.05
2019-01-14T13:09:16.618Z,100806.49
2019-01-14T13:11:43.807Z,100806.84
2019-01-14T13:14:11.120Z,100806.84
2019-01-14T13:16:38.318Z,100806.64
2019-01-14T13:19:05.479Z,100813.30
2019-01-14T13:21:32.693Z,100813.30
2019-01-14T13:23:59.903Z,100824.92
2019-01-14T13:26:27.206Z,100822.82
2019-01-14T13:28:58.803Z,100825.80
2019-01-14T13:31:26.064Z,100822.73
2019-01-14T13:33:53.279Z,100828.28
2019-01-14T13:36:20.796Z,100826.41
2019-01-14T13:38:48.134Z,100826.41
2019-01-14T13:41:15.408Z,100830.91
2019-01-14T13:43:42.619Z,100828.21
2019-01-14T13:46:09.938Z,100828.09
2019-01-14T13:48:37.230Z,100825.86
2019-01-14T13:51:04.426Z,100834.21
2019-01-14T13:53:31.645Z,100832.55
2019-01-14T13:55:59.532Z,100845.02
2019-01-14T13:58:27.012Z,100835.98
2019-01-14T14:00:54.250Z,100851.70
2019-01-14T14:03:21.460Z,100845.86
2019-01-14T14:05:48.798Z,100849.36
2019-01-14T14:08:15.966Z,100847.55
2019-01-14T14:10:43.128Z,100855.00
2019-01-14T14:13:10.335Z,100839.91
2019-01-14T14:15:37.521Z,100863.43
2019-01-14T14:18:04.719Z,100855.22
2019-01-14T14:20:31.903Z,100869.64
2019-01-14T14:22:59.133Z,100869.59
2019-01-14T14:25:26.291Z,100874.81
2019-01-14T14:27:53.482Z,100892.67
2019-01-14T14:30:23.125Z,100886.19
2019-01-14T14:32:50.295Z,100884.43
2019-01-14T14:35:17.548Z,100886.20
2019-01-14T14:37:44.715Z,100888.00
2019-01-14T14:40:12.125Z,100900.45
2019-01-14T14:42:39.313Z,100911.48
2019-01-14T14:45:07.444Z,100906.28
2019-01-14T14:47:34.629Z,100906.28
2019-01-14T14:50:01.811Z,100915.98
2019-01-14T14:52:29.081Z,100912.60
2019-01-14T14:54:56.290Z,100923.97
2019-01-14T14:57:23.524Z,100919.05
2019-01-14T14:59:50.728Z,100919.05
2019-01-14T15:02:17.929Z,100925.12
2019-01-14T15:04:45.107Z,100933.52
2019-01-14T15:07:12.322Z,100930.53
2019-01-14T15:09:39.452Z,100939.60
2019-01-14T15:12:06.698Z,100944.08
2019-01-14T15:14:33.914Z,100951.66
2019-01-14T15:17:01.192Z,100953.47
2019-01-14T15:19:28.462Z,100953.47
2019-01-14T15:21:55.630Z,100953.05
2019-01-14T15:24:22.821Z,100954.44
2019-01-14T15:26:50.022Z,100958.43
2019-01-14T15:29:17.272Z,100958.89
2019-01-14T15:31:44.448Z,100958.89
2019-01-14T15:34:11.612Z,100952.82
2019-01-14T15:36:38.873Z,100970.65
2019-01-14T15:39:08.526Z,100970.65
2019-01-14T15:41:35.728Z,100968.91
2019-01-14T15:44:03.158Z,100968.57
2019-01-14T15:46:30.373Z,100968.57
2019-01-14T15:48:57.685Z,100972.09
2019-01-14T15:51:24.828Z,100974.67
2019-01-14T15:53:52.011Z,100977.77
2019-01-14T15:56:19.265Z,100992.14
2019-01-14T15:58:46.471Z,100992.14
2019-01-14T16:01:13.740Z,100992.63
2019-01-14T16:03:40.903Z,100991.75
2019-01-14T16:06:08.106Z,101003.09
2019-01-14T16:08:35.321Z,101002.28
2019-01-14T16:11:02.547Z,100994.84
2019-01-14T16:13:29.762Z,100997.50
2019-01-14T16:15:56.942Z,101009.66
2019-01-14T16:18:24.152Z,101009.66
2019-01-14T16:20:51.379Z,101007.95
2019-01-14T16:23:18.630Z,101020.63
2019-01-14T16:25:45.875Z,101017.63
2019-01-14T16:28:13.298Z,101013.30
2019-01-14T16:30:40.580Z,101010.28
2019-01-14T16:33:07.787Z,101010.28
2019-01-14T16:35:34.982Z,101001.16
2019-01-14T16:38:02.337Z,101001.16
2019-01-14T16:40:29.513Z,101023.79
2019-01-14T16:42:56.688Z,101030.31
2019-01-14T16:45:25.064Z,101037.66
2019-01-14T16:47:52.251Z,101041.64
2019-01-14T16:50:19.451Z,101041.64
2019-01-14T16:52:47.032Z,101042.06
2019-01-14T16:55:16.406Z,101055.57
2019-01-14T16:57:43.661Z,101058.19
2019-01-14T17:00:14.264Z,101061.70
2019-01-14T17:02:41.453Z,101061.70
2019-01-14T17:05:13.410Z,101052.14
2019-01-14T17:07:37.834Z,101052.14
2019-01-14T17:10:06.134Z,101056.89
2019-01-14T17:12:33.374Z,101046.91
2019-01-14T17:15:00.605Z,101053.86
2019-01-14T17:17:27.845Z,101058.20
2019-01-14T17:19:55.050Z,101062.11
2019-01-14T17:22:22.282Z,101058.66
2019-01-14T17:24:49.496Z,101082.11
2019-01-14T17:27:18.379Z,101082.11
2019-01-14T17:29:45.580Z,101090.85
2019-01-14T17:32:12.909Z,101090.85
2019-01-14T17:34:40.192Z,101102.58
2019-01-14T17:37:07.459Z,101095.16
2019-01-14T17:39:34.859Z,101106.55
2019-01-14T17:42:02.372Z,101110.88
2019-01-14T17:44:29.718Z,101112.59
2019-01-14T17:46:56.938Z,101112.59
2019-01-14T17:49:24.168Z,101111.40
2019-01-14T17:51:51.434Z,101109.20
2019-01-14T17:54:18.762Z,101120.95
2019-01-14T17:56:45.989Z,101123.16
2019-01-14T17:59:13.258Z,101129.25
2019-01-14T18:01:40.770Z,101132.20
2019-01-14T18:04:07.981Z,101137.84
2019-01-14T18:06:35.131Z,101135.20
2019-01-14T18:09:03.355Z,101122.08
2019-01-14T18:11:30.787Z,101135.91
2019-01-14T18:13:58.172Z,101139.95
2019-01-14T18:16:25.430Z,101146.95
2019-01-14T18:18:52.655Z,101148.38
2019-01-14T18:21:19.969Z,101148.38
2019-01-14T18:23:48.879Z,101143.16
2019-01-14T18:26:16.535Z,101144.88
2019-01-14T18:28:44.013Z,101140.02
2019-01-14T18:31:11.449Z,101141.81
2019-01-14T18:33:42.143Z,101150.50
2019-01-14T18:36:09.338Z,101156.09
2019-01-14T18:38:36.578Z,101152.59
2019-01-14T18:41:03.728Z,101152.59
2019-01-14T18:43:31.057Z,101171.30
2019-01-14T18:45:58.267Z,101171.21
2019-01-14T18:48:25.678Z,101171.21
2019-01-14T18:50:53.021Z,101159.44
2019-01-14T18:53:20.276Z,101167.77
2019-01-14T18:55:47.479Z,101182.19
2019-01-14T18:58:14.664Z,101180.45
2019-01-14T19:00:41.922Z,101176.91
2019-01-14T19:03:09.094Z,101176.91
2019-01-14T19:05:36.297Z,101181.34
2019-01-14T19:08:03.493Z,101175.21
2019-01-14T19:10:30.703Z,101193.43
2019-01-14T19:12:57.910Z,101193.43
2019-01-14T19:15:25.117Z,101187.30
2019-01-14T19:17:52.968Z,101182.53
2019-01-14T19:20:22.691Z,101179.05
2019-01-14T19:22:49.934Z,101183.38
2019-01-14T19:25:17.107Z,101181.27
2019-01-14T19:27:45.097Z,101183.44
2019-01-14T19:30:13.640Z,101185.97
2019-01-14T19:32:40.850Z,101190.73
2019-01-14T19:35:08.050Z,101191.69
2019-01-14T19:37:35.261Z,101194.30
2019-01-14T19:40:05.286Z,101190.71
2019-01-14T19:42:32.517Z,101194.25
2019-01-14T19:44:59.706Z,101194.25
2019-01-14T19:47:26.890Z,101209.09
2019-01-14T19:49:54.118Z,101209.92
2019-01-14T19:52:21.407Z,101205.98
2019-01-14T19:54:48.595Z,101210.80
2019-01-14T19:57:15.845Z,101210.80
2019-01-14T19:59:43.059Z,101221.21
2019-01-14T20:02:10.210Z,101220.77
2019-01-14T20:04:37.576Z,101228.62
2019-01-14T20:07:10.474Z,101228.62
2019-01-14T20:09:33.930Z,101218.19
2019-01-14T20:12:01.178Z,101218.19
2019-01-14T20:14:28.375Z,101221.71
2019-01-14T20:16:55.653Z,101213.94
2019-01-14T20:19:22.816Z,101230.88
2019-01-14T20:21:49.997Z,101230.88
2019-01-14T20:24:17.243Z,101226.13
2019-01-14T20:26:44.492Z,101234.46
2019-01-14T20:29:11.690Z,101234.91
2019-01-14T20:31:39.636Z,101243.16
2019-01-14T20:34:06.851Z,101249.25
2019-01-14T20:36:34.222Z,101247.95
2019-01-14T20:39:01.441Z,101247.95
2019-01-14T20:41:28.656Z,101247.06
2019-01-14T20:43:55.856Z,101255.41
2019-01-14T20:46:23.096Z,101255.41
2019-01-14T20:48:50.755Z,101249.31
2019-01-14T20:51:17.888Z,101256.33
2019-01-14T20:53:45.176Z,101255.50
2019-01-14T20:56:13.011Z,101255.50
2019-01-14T20:58:40.241Z,101256.34
2019-01-14T21:01:07.488Z,101264.26
2019-01-14T21:03:34.713Z,101261.66
2019-01-14T21:06:02.072Z,101271.61
2019-01-14T21:08:29.304Z,101282.48
2019-01-14T21:10:56.493Z,101282.48
2019-01-14T21:13:23.739Z,101285.03
2019-01-14T21:15:50.993Z,101281.59
2019-01-14T21:18:18.200Z,101284.28
2019-01-14T21:20:45.398Z,101280.45
2019-01-14T21:23:12.616Z,101292.24
2019-01-14T21:25:39.908Z,101296.98
2019-01-14T21:28:07.173Z,101296.98
2019-01-14T21:30:34.381Z,101296.77
2019-01-14T21:33:01.735Z,101296.77
2019-01-14T21:35:28.918Z,101300.70
2019-01-14T21:37:58.329Z,101304.20
2019-01-14T21:40:25.610Z,101298.11
2019-01-14T21:42:52.804Z,101298.52
2019-01-14T21:45:20.014Z,101309.87
2019-01-14T21:47:47.337Z,101309.87
2019-01-14T21:50:16.179Z,101310.36
2019-01-14T21:52:43.375Z,101327.78
2019-01-14T21:55:12.648Z,101319.03
2019-01-14T21:57:39.935Z,101323.75
2019-01-14T22:00:10.715Z,101327.20
2019-01-14T22:02:39.282Z,101329.88
2019-01-14T22:05:07.035Z,101325.47
2019-01-14T22:07:34.374Z,101325.45
2019-01-14T22:10:08.697Z,101325.45
2019-01-14T22:12:35.932Z,101323.70
2019-01-14T22:15:04.204Z,101322.38
2019-01-14T22:17:31.457Z,101324.58
2019-01-14T22:19:59.086Z,101324.11
2019-01-14T22:22:26.364Z,101326.30
2019-01-14T22:24:53.613Z,101324.17
2019-01-14T22:27:20.842Z,101321.95
2019-01-14T22:29:48.062Z,101320.23
2019-01-14T22:32:15.335Z,101313.61
2019-01-14T22:34:42.618Z,101313.61
2019-01-14T22:37:09.847Z,101313.69
2019-01-14T22:39:37.081Z,101311.07
2019-01-14T22:42:04.307Z,101311.09
2019-01-14T22:44:31.532Z,101311.99
2019-01-14T22:46:58.737Z,101311.99
2019-01-14T22:49:26.009Z,101323.34
2019-01-14T22:51:53.439Z,101323.77
2019-01-14T22:54:20.683Z,101323.77
2019-01-14T22:56:47.962Z,101325.95
2019-01-14T22:59:15.277Z,101325.95
2019-01-14T23:01:46.830Z,101327.69
2019-01-14T23:04:13.990Z,101324.17
2019-01-14T23:06:41.227Z,101318.52
2019-01-14T23:09:08.879Z,101320.72
2019-01-14T23:11:36.139Z,101321.16
2019-01-14T23:14:03.358Z,101321.16
2019-01-14T23:16:30.580Z,101324.67
2019-01-14T23:18:57.751Z,101324.67
2019-01-14T23:21:24.972Z,101338.58
2019-01-14T23:23:52.163Z,101338.58
2019-01-14T23:26:19.409Z,101325.08
2019-01-14T23:28:46.576Z,101325.55
2019-01-14T23:31:13.777Z,101336.41
2019-01-14T23:33:40.986Z,101333.80
2019-01-14T23:36:08.196Z,101333.80
2019-01-14T23:38:35.434Z,101335.53
2019-01-14T23:41:02.749Z,101335.53
2019-01-14T23:43:29.977Z,101325.55
2019-01-14T23:45:57.174Z,101325.56
2019-01-14T23:48:24.383Z,101318.53
2019-01-14T23:50:51.827Z,101318.53
2019-01-14T23:53:19.067Z,101322.05
2019-01-14T23:55:46.235Z,101318.52
2019-01-14T23:58:13.503Z,101318.52
